createdAt,value
2023-01-10T00:04:43.584Z,101122.09
2023-01-10T00:09:48.558Z,101122.09
2023-01-10T00:14:52.762Z,101122.09
2023-01-10T00:19:56.343Z,101122.09
2023-01-10T00:25:01.369Z,101122.09
2023-01-10T00:30:13.887Z,101122.09
2023-01-10T00:35:17.496Z,101122.09
2023-01-10T00:40:22.637Z,101122.09
2023-01-10T00:45:27.189Z,101122.09
2023-01-10T00:50:30.780Z,101122.09
2023-01-10T00:55:37.403Z,101381.25
2023-01-10T01:00:41.133Z,101122.09
2023-01-10T01:05:45.610Z,101122.09
2023-01-10T01:10:51.922Z,101122.09
2023-01-10T01:15:59.396Z,101381.25
2023-01-10T01:21:05.709Z,101381.25
2023-01-10T01:26:11.067Z,101122.09
2023-01-10T01:31:14.707Z,101381.25
2023-01-10T01:36:18.406Z,101640.44
2023-01-10T01:41:41.002Z,101640.44
2023-01-10T01:46:47.970Z,101640.44
2023-01-10T01:51:58.197Z,101899.63
2023-01-10T01:57:06.982Z,101640.44
2023-01-10T02:02:16.353Z,101899.63
2023-01-10T02:07:20.715Z,101640.44
2023-01-10T02:12:28.536Z,101640.44
2023-01-10T02:17:32.235Z,101640.44
2023-01-10T02:23:11.852Z,101899.63
2023-01-10T02:28:55.341Z,101899.63
2023-01-10T02:34:06.384Z,101899.63
2023-01-10T02:39:18.246Z,101640.44
2023-01-10T02:44:29.359Z,101381.25
2023-01-10T02:49:43.084Z,101640.44
2023-01-10T02:54:47.082Z,101640.44
2023-01-10T03:07:15.914Z,101899.63
2023-01-10T03:12:26.086Z,101899.63
2023-01-10T03:17:31.476Z,101640.44
2023-01-10T03:22:40.681Z,101899.63
2023-01-10T03:27:53.395Z,101899.63
2023-01-10T03:33:00.023Z,101899.63
2023-01-10T03:38:11.156Z,101899.63
2023-01-10T03:43:40.443Z,101640.44
2023-01-10T03:48:47.241Z,101899.63
2023-01-10T03:53:52.241Z,102158.84
2023-01-10T03:58:55.870Z,101899.63
2023-01-10T04:03:59.465Z,102158.84
2023-01-10T04:09:04.759Z,101899.63
2023-01-10T04:14:08.575Z,102158.84
2023-01-10T04:19:12.207Z,101899.63
2023-01-10T04:24:17.355Z,101899.63
2023-01-10T04:29:20.887Z,102158.84
2023-01-10T04:34:24.452Z,102158.84
2023-01-10T04:39:29.495Z,102158.84
2023-01-10T04:44:33.166Z,102158.84
2023-01-10T04:49:36.729Z,101899.63
2023-01-10T04:54:41.711Z,101899.63
2023-01-10T04:59:45.263Z,102158.84
2023-01-10T05:04:48.832Z,102158.84
2023-01-10T05:09:53.841Z,102158.84
2023-01-10T05:14:57.427Z,102158.84
2023-01-10T05:20:00.999Z,102158.84
2023-01-10T05:25:06.921Z,102158.84
2023-01-10T05:30:12.963Z,102158.84
2023-01-10T05:35:17.421Z,102158.84
2023-01-10T05:40:22.409Z,101899.63
2023-01-10T05:45:25.985Z,101899.63
2023-01-10T05:50:29.711Z,101899.63
2023-01-10T05:55:37.979Z,101640.44
2023-01-10T06:00:41.602Z,101640.44
2023-01-10T06:05:46.734Z,101640.44
2023-01-10T06:10:53.628Z,101640.44
2023-01-10T06:15:57.351Z,101899.63
2023-01-10T06:21:00.910Z,101381.25
2023-01-10T06:26:06.517Z,101640.44
2023-01-10T06:31:10.139Z,101381.25
2023-01-10T06:36:13.870Z,101381.25
2023-01-10T06:41:18.889Z,101381.25
2023-01-10T06:46:22.741Z,101640.44
2023-01-10T06:51:26.445Z,101640.44
2023-01-10T06:56:31.370Z,101640.44
2023-01-10T07:01:35.270Z,101640.44
2023-01-10T07:06:39.763Z,101640.44
2023-01-10T07:11:44.961Z,101640.44
2023-01-10T07:16:48.683Z,101381.25
2023-01-10T07:21:52.437Z,101640.44
2023-01-10T07:26:57.829Z,101640.44
2023-01-10T07:32:01.580Z,101640.44
2023-01-10T07:37:05.370Z,101640.44
2023-01-10T07:42:10.843Z,101640.44
2023-01-10T07:47:15.008Z,101640.44
2023-01-10T07:52:18.762Z,101640.44
2023-01-10T07:57:23.924Z,101640.44
2023-01-10T08:02:27.767Z,101899.63
2023-01-10T08:07:32.040Z,102158.84
2023-01-10T08:12:36.986Z,102158.84
2023-01-10T08:17:40.740Z,102418.06
2023-01-10T08:22:44.443Z,102418.06
2023-01-10T08:27:49.679Z,102418.06
2023-01-10T08:32:53.469Z,102418.06
2023-01-10T08:38:00.089Z,102418.06
2023-01-10T08:43:06.800Z,102418.06
2023-01-10T08:48:11.664Z,102677.31
2023-01-10T08:53:15.375Z,102677.31
2023-01-10T08:58:20.408Z,102677.31
2023-01-10T09:03:24.087Z,102936.56
2023-01-10T09:08:28.084Z,102936.56
2023-01-10T09:13:34.634Z,103195.84
2023-01-10T09:18:38.390Z,102936.56
2023-01-10T09:23:43.664Z,103195.84
2023-01-10T09:28:49.325Z,103195.84
2023-01-10T09:33:52.979Z,102677.31
2023-01-10T09:38:56.639Z,103195.84
2023-01-10T09:44:06.196Z,103195.84
2023-01-10T09:49:14.745Z,103455.16
2023-01-10T09:54:25.401Z,103455.16
2023-01-10T09:59:36.678Z,102936.56
2023-01-10T10:04:41.744Z,103195.84
2023-01-10T10:09:45.358Z,102936.56
2023-01-10T10:15:03.613Z,103195.84
2023-01-10T10:20:25.793Z,102936.56
2023-01-10T10:25:46.320Z,103195.84
2023-01-10T10:30:58.035Z,103195.84
2023-01-10T10:36:05.978Z,103195.84
2023-01-10T10:41:19.270Z,103455.16
2023-01-10T10:46:25.151Z,103455.16
2023-01-10T10:51:38.878Z,103455.16
2023-01-10T10:56:44.174Z,103195.84
2023-01-10T11:01:52.056Z,103455.16
2023-01-10T11:06:56.658Z,103455.16
2023-01-10T11:12:00.444Z,103195.84
2023-01-10T11:17:25.698Z,103455.16
2023-01-10T11:22:31.417Z,103714.47
2023-01-10T11:27:48.882Z,103714.47
2023-01-10T11:32:56.634Z,103455.16
2023-01-10T11:38:02.337Z,103455.16
2023-01-10T11:43:26.463Z,103455.16
2023-01-10T11:49:04.560Z,103195.84
2023-01-10T11:54:09.027Z,103195.84
2023-01-10T11:59:15.545Z,102936.56
2023-01-10T12:04:22.591Z,102936.56
2023-01-10T12:09:39.666Z,102936.56
2023-01-10T12:14:43.561Z,102936.56
2023-01-10T12:19:48.663Z,102936.56
2023-01-10T12:24:55.624Z,102936.56
2023-01-10T12:30:06.494Z,103195.84
2023-01-10T12:35:18.383Z,103195.84
2023-01-10T12:40:31.852Z,102936.56
2023-01-10T12:45:42.348Z,103195.84
2023-01-10T12:50:54.017Z,103195.84
2023-01-10T12:55:59.878Z,103195.84
2023-01-10T13:01:05.602Z,103195.84
2023-01-10T13:06:17.716Z,103195.84
2023-01-10T13:11:25.901Z,103195.84
2023-01-10T13:16:37.566Z,103195.84
2023-01-10T13:21:44.092Z,103195.84
2023-01-10T13:26:53.322Z,103455.16
2023-01-10T13:31:59.908Z,103195.84
2023-01-10T13:37:13.341Z,103714.47
2023-01-10T13:42:49.980Z,103455.16
2023-01-10T13:48:29.664Z,103455.16
2023-01-10T13:53:44.345Z,103455.16
2023-01-10T13:59:05.160Z,103455.16
2023-01-10T14:04:09.470Z,103195.84
2023-01-10T14:09:49.711Z,103455.16
2023-01-10T14:15:00.929Z,103195.84
2023-01-10T14:20:16.589Z,103455.16
2023-01-10T14:25:23.227Z,103455.16
2023-01-10T14:30:31.888Z,103714.47
2023-01-10T14:35:40.532Z,103714.47
2023-01-10T14:40:49.212Z,103714.47
2023-01-10T14:45:59.569Z,103714.47
2023-01-10T14:51:21.312Z,103455.16
2023-01-10T14:56:28.369Z,103714.47
2023-01-10T15:01:32.234Z,103973.78
2023-01-10T15:06:54.723Z,103714.47
2023-01-10T15:12:02.224Z,103714.47
2023-01-10T15:17:06.804Z,103455.16
2023-01-10T15:22:28.563Z,103714.47
2023-01-10T15:27:34.686Z,103714.47
2023-01-10T15:32:40.709Z,103455.16
2023-01-10T15:37:51.229Z,103455.16
2023-01-10T15:43:12.692Z,103455.16
2023-01-10T15:48:31.700Z,103714.47
2023-01-10T15:53:57.907Z,103714.47
2023-01-10T15:59:04.880Z,103455.16
2023-01-10T16:04:15.174Z,103714.47
2023-01-10T16:09:21.724Z,103455.16
2023-01-10T16:14:27.289Z,103195.84
2023-01-10T16:19:30.985Z,103455.16
2023-01-10T16:24:37.165Z,103455.16
2023-01-10T16:29:42.621Z,103195.84
2023-01-10T16:34:46.372Z,103455.16
2023-01-10T16:39:49.953Z,103455.16
2023-01-10T16:44:55.069Z,103195.84
2023-01-10T16:49:58.877Z,103195.84
2023-01-10T16:55:03.118Z,103195.84
2023-01-10T17:00:09.650Z,103455.16
2023-01-10T17:05:16.284Z,103455.16
2023-01-10T17:10:27.749Z,103455.16
2023-01-10T17:15:32.862Z,103455.16
2023-01-10T17:20:36.529Z,103195.84
2023-01-10T17:25:40.526Z,102936.56
2023-01-10T17:30:45.801Z,103455.16
2023-01-10T17:35:49.400Z,103714.47
2023-01-10T17:40:53.698Z,103714.47
2023-01-10T17:45:59.965Z,103714.47
2023-01-10T17:51:04.602Z,103973.78
2023-01-10T17:56:08.960Z,103714.47
2023-01-10T18:01:19.004Z,103714.47
2023-01-10T18:06:24.856Z,103714.47
2023-01-10T18:11:30.748Z,103973.78
2023-01-10T18:16:36.016Z,103973.78
2023-01-10T18:21:39.689Z,103973.78
2023-01-10T18:26:43.425Z,103714.47
2023-01-10T18:31:48.640Z,103714.47
2023-01-10T18:36:52.223Z,103973.78
2023-01-10T18:41:57.091Z,103714.47
2023-01-10T18:47:02.284Z,103714.47
2023-01-10T18:52:06.653Z,103714.47
2023-01-10T18:57:10.370Z,103714.47
2023-01-10T19:02:17.407Z,103455.16
2023-01-10T19:07:21.942Z,103455.16
2023-01-10T19:12:28.510Z,103455.16
2023-01-10T19:17:33.474Z,103714.47
2023-01-10T19:22:37.100Z,103714.47
2023-01-10T19:27:40.698Z,103714.47
2023-01-10T19:32:45.665Z,103714.47
2023-01-10T19:37:49.535Z,103714.47
2023-01-10T19:42:53.283Z,103714.47
2023-01-10T19:47:58.457Z,103714.47
2023-01-10T19:53:02.041Z,103714.47
2023-01-10T19:58:05.723Z,103455.16
2023-01-10T20:03:10.706Z,103455.16
2023-01-10T20:08:14.523Z,103714.47
2023-01-10T20:13:18.401Z,103714.47
2023-01-10T20:18:23.513Z,103714.47
2023-01-10T20:23:27.096Z,103714.47
2023-01-10T20:28:31.363Z,103714.47
2023-01-10T20:33:36.423Z,103714.47
2023-01-10T20:38:40.042Z,103455.16
2023-01-10T20:43:44.070Z,103195.84
2023-01-10T20:48:50.871Z,103714.47
2023-01-10T20:53:55.252Z,103455.16
2023-01-10T20:58:59.771Z,103714.47
2023-01-10T21:04:05.929Z,103714.47
2023-01-10T21:09:10.916Z,103455.16
2023-01-10T21:14:14.515Z,103714.47
2023-01-10T21:19:20.692Z,103714.47
2023-01-10T21:24:25.619Z,103455.16
2023-01-10T21:29:30.865Z,103455.16
2023-01-10T21:34:35.918Z,103714.47
2023-01-10T21:39:39.582Z,103714.47
2023-01-10T21:44:43.324Z,103714.47
2023-01-10T21:49:48.772Z,103714.47
2023-01-10T21:54:55.835Z,103714.47
2023-01-10T22:00:00.286Z,103714.47
2023-01-10T22:05:05.947Z,103714.47
2023-01-10T22:10:13.962Z,103714.47
2023-01-10T22:15:19.435Z,103455.16
2023-01-10T22:20:24.725Z,103714.47
2023-01-10T22:25:28.838Z,103455.16
2023-01-10T22:30:32.390Z,103714.47
2023-01-10T22:35:37.513Z,103455.16
2023-01-10T22:40:41.329Z,103455.16
2023-01-10T22:45:44.972Z,103714.47
2023-01-10T22:50:50.484Z,103455.16
2023-01-10T22:55:54.076Z,103714.47
2023-01-10T23:00:58.011Z,103195.84
2023-01-10T23:06:02.941Z,103455.16
2023-01-10T23:11:07.511Z,103195.84
2023-01-10T23:16:14.991Z,103195.84
2023-01-10T23:21:20.045Z,103195.84
2023-01-10T23:26:23.801Z,103195.84
2023-01-10T23:31:29.497Z,103195.84
2023-01-10T23:36:34.768Z,103195.84
2023-01-10T23:41:38.364Z,102936.56
2023-01-10T23:46:41.944Z,102936.56
2023-01-10T23:51:47.080Z,102936.56
2023-01-10T23:56:52.555Z,102936.56
